Time;durP1;ratioP1;P1;durP2;ratioP2;P2;SDS_P1;SDS_P2;PMS_P1;PMS_P2;Temp;Humidity;BMP_temperature;BMP_pressure;BME280_temperature;BME280_humidity;BME280_pressure;Samples;Min_cycle;Max_cycle;Signal;HPM_P1;HPM_P2
2021/11/19 00:00:00;;;;;;;75.10;37.50;;;9.50;99.90;;;;;;5102114;28;20110;-47
2021/11/19 00:02:29;;;;;;;70.07;38.45;;;9.60;99.90;;;;;;5110638;28;20103;-48
2021/11/19 00:04:55;;;;;;;72.57;39.65;;;9.60;99.90;;;;;;5110662;28;20477;-47
2021/11/19 00:07:21;;;;;;;76.68;38.95;;;9.60;99.90;;;;;;5110817;28;20024;-47
2021/11/19 00:09:46;;;;;;;65.88;36.03;;;9.70;99.90;;;;;;5109891;27;20035;-46
2021/11/19 00:12:13;;;;;;;72.40;37.72;;;9.60;99.90;;;;;;5110437;28;20505;-46
2021/11/19 00:14:38;;;;;;;70.35;37.58;;;9.70;99.90;;;;;;5110736;28;20380;-47
2021/11/19 00:17:05;;;;;;;79.75;37.15;;;9.70;99.90;;;;;;5110584;28;20028;-48
2021/11/19 00:19:33;;;;;;;71.40;37.17;;;9.70;99.90;;;;;;5109842;28;20023;-46
2021/11/19 00:21:58;;;;;;;67.53;36.67;;;9.70;99.90;;;;;;5110846;28;20177;-48
2021/11/19 00:24:26;;;;;;;69.22;37.22;;;9.70;99.90;;;;;;5110324;28;20024;-47
2021/11/19 00:26:52;;;;;;;84.72;38.53;;;9.70;99.90;;;;;;5104893;28;20028;-47
2021/11/19 00:29:17;;;;;;;80.97;40.33;;;9.70;99.90;;;;;;5100571;28;20223;-46
2021/11/19 00:31:44;;;;;;;67.53;38.08;;;9.70;99.90;;;;;;5110401;28;20520;-49
2021/11/19 00:34:09;;;;;;;72.97;37.55;;;9.80;99.90;;;;;;5110618;28;20032;-47
2021/11/19 00:36:37;;;;;;;79.57;39.67;;;9.80;99.90;;;;;;5110428;28;20050;-48
2021/11/19 00:39:11;;;;;;;78.38;38.42;;;9.80;99.90;;;;;;5109402;28;20031;-47
2021/11/19 00:41:39;;;;;;;80.88;39.90;;;9.80;99.90;;;;;;5110610;28;20039;-46
2021/11/19 00:44:05;;;;;;;80.28;40.50;;;9.80;99.90;;;;;;5109830;28;20032;-47
2021/11/19 00:46:32;;;;;;;79.28;38.35;;;9.80;99.90;;;;;;5110028;28;20076;-47
2021/11/19 00:48:58;;;;;;;86.35;41.00;;;9.90;99.90;;;;;;5108690;28;20020;-47
2021/11/19 00:51:27;;;;;;;71.65;38.65;;;9.80;99.90;;;;;;5110086;28;20028;-47
2021/11/19 00:53:55;;;;;;;74.43;38.88;;;9.90;99.90;;;;;;5108563;28;20131;-47
2021/11/19 00:56:23;;;;;;;78.90;37.47;;;9.90;99.90;;;;;;5108206;28;20129;-47
2021/11/19 00:58:50;;;;;;;70.85;39.38;;;9.90;99.90;;;;;;5096845;28;20171;-47
2021/11/19 01:01:22;;;;;;;77.75;39.05;;;9.90;99.90;;;;;;5108730;28;20035;-47
2021/11/19 01:03:48;;;;;;;79.53;38.13;;;9.90;99.90;;;;;;5109454;28;20059;-47
2021/11/19 01:06:14;;;;;;;79.57;39.03;;;9.90;99.90;;;;;;5109680;28;20055;-47
2021/11/19 01:08:41;;;;;;;67.75;37.58;;;10.00;99.90;;;;;;5108812;28;20027;-47
2021/11/19 01:11:11;;;;;;;69.70;38.83;;;10.00;99.90;;;;;;5109943;28;20098;-47
2021/11/19 01:13:38;;;;;;;74.88;37.38;;;10.00;99.90;;;;;;5109021;28;20028;-46
2021/11/19 01:16:10;;;;;;;73.38;37.00;;;10.00;99.90;;;;;;5109648;28;20059;-46
2021/11/19 01:18:40;;;;;;;70.93;38.78;;;10.00;99.90;;;;;;5108568;28;20066;-46
2021/11/19 01:21:10;;;;;;;71.10;34.75;;;10.00;99.90;;;;;;5109366;28;20034;-46
2021/11/19 01:23:36;;;;;;;73.15;38.53;;;10.00;99.90;;;;;;5109574;28;20020;-46
2021/11/19 01:26:07;;;;;;;75.30;39.35;;;10.00;99.90;;;;;;5109892;28;20070;-46
2021/11/19 01:28:33;;;;;;;67.13;37.90;;;10.00;99.90;;;;;;5096940;28;20055;-46
2021/11/19 01:31:07;;;;;;;75.82;36.78;;;10.00;99.90;;;;;;5106066;28;20070;-46
2021/11/19 01:33:34;;;;;;;69.60;36.83;;;10.00;99.90;;;;;;5109489;28;20572;-47
2021/11/19 01:35:59;;;;;;;74.88;37.72;;;10.00;99.90;;;;;;5109355;28;20027;-47
2021/11/19 01:38:26;;;;;;;69.68;35.70;;;10.00;99.90;;;;;;5108790;28;20028;-46
2021/11/19 01:40:57;;;;;;;69.68;36.22;;;10.00;99.90;;;;;;5108512;28;20031;-49
2021/11/19 01:43:22;;;;;;;68.43;35.95;;;10.00;99.90;;;;;;5108386;28;20027;-46
2021/11/19 01:45:51;;;;;;;69.95;36.10;;;10.00;99.90;;;;;;5108789;28;20042;-47
2021/11/19 01:48:21;;;;;;;72.03;34.45;;;10.00;99.90;;;;;;5108525;28;20528;-47
2021/11/19 01:50:55;;;;;;;66.87;33.47;;;10.00;99.90;;;;;;5108766;28;20024;-47
2021/11/19 01:53:30;;;;;;;61.05;33.65;;;10.10;99.90;;;;;;5108752;28;20253;-47
2021/11/19 01:56:21;;;;;;;64.78;35.40;;;10.10;99.90;;;;;;5109058;28;20459;-47
2021/11/19 01:58:54;;;;;;;63.83;33.03;;;10.00;99.90;;;;;;5091003;28;20021;-47
2021/11/19 02:01:45;;;;;;;61.47;34.30;;;10.00;99.90;;;;;;5108121;28;20027;-47
2021/11/19 02:04:15;;;;;;;65.35;34.67;;;10.00;99.90;;;;;;5108342;28;20108;-48
2021/11/19 02:06:47;;;;;;;62.83;32.88;;;10.00;99.90;;;;;;5108651;28;20020;-47
2021/11/19 02:09:49;;;;;;;67.63;35.40;;;10.00;99.90;;;;;;5107952;28;20030;-48
2021/11/19 02:12:50;;;;;;;73.00;36.15;;;10.00;99.90;;;;;;5106637;28;20535;-47
2021/11/19 02:15:28;;;;;;;68.32;36.13;;;10.00;99.90;;;;;;5107145;28;20545;-46
2021/11/19 02:17:58;;;;;;;66.22;34.58;;;10.00;99.90;;;;;;5108547;28;20021;-47
2021/11/19 02:20:46;;;;;;;62.97;33.97;;;10.00;99.90;;;;;;5108261;28;20032;-46
2021/11/19 02:23:23;;;;;;;65.85;35.67;;;10.00;99.90;;;;;;5108179;28;20648;-46
2021/11/19 02:25:59;;;;;;;65.70;35.45;;;10.00;99.90;;;;;;5108638;28;20420;-48
2021/11/19 02:28:28;;;;;;;76.70;36.63;;;10.00;99.90;;;;;;5097872;28;20028;-47
2021/11/19 02:31:04;;;;;;;72.35;38.30;;;10.00;99.90;;;;;;5104518;28;20016;-48
2021/11/19 02:33:30;;;;;;;74.13;37.60;;;10.00;99.90;;;;;;5108589;28;20123;-46
2021/11/19 02:36:08;;;;;;;67.43;35.45;;;10.00;99.90;;;;;;5108548;28;20103;-46
2021/11/19 02:38:45;;;;;;;67.15;34.20;;;10.00;99.90;;;;;;5107974;28;20110;-50
2021/11/19 02:41:11;;;;;;;65.63;34.40;;;10.00;99.90;;;;;;5108124;28;20044;-47
2021/11/19 02:43:55;;;;;;;68.32;34.33;;;10.10;99.90;;;;;;5108169;28;20258;-47
2021/11/19 02:46:24;;;;;;;66.35;33.60;;;10.00;99.90;;;;;;5108680;28;20365;-46
2021/11/19 02:48:49;;;;;;;61.05;34.42;;;10.00;99.90;;;;;;5107842;28;20031;-47
2021/11/19 02:51:15;;;;;;;63.47;33.78;;;10.10;99.90;;;;;;5108489;28;20393;-47
2021/11/19 02:53:45;;;;;;;61.80;34.15;;;10.10;99.90;;;;;;5110819;28;20333;-47
2021/11/19 02:56:12;;;;;;;64.40;33.63;;;10.00;99.90;;;;;;5112584;28;20264;-48
2021/11/19 02:58:43;;;;;;;62.38;34.80;;;10.10;99.90;;;;;;5099751;28;20080;-47
2021/11/19 03:01:14;;;;;;;62.58;33.90;;;10.10;99.90;;;;;;5110301;28;20035;-46
2021/11/19 03:03:43;;;;;;;64.85;35.70;;;10.10;99.90;;;;;;5112027;28;20031;-46
2021/11/19 03:06:08;;;;;;;57.30;32.80;;;10.10;99.90;;;;;;5112379;28;20035;-47
2021/11/19 03:08:34;;;;;;;65.53;34.78;;;10.10;99.90;;;;;;5111378;28;20509;-46
2021/11/19 03:11:01;;;;;;;65.85;36.17;;;10.10;99.90;;;;;;5112643;28;20020;-47
2021/11/19 03:13:30;;;;;;;70.68;35.03;;;10.10;99.90;;;;;;5112108;28;20564;-47
2021/11/19 03:15:56;;;;;;;61.90;32.08;;;10.10;99.90;;;;;;5110688;28;20037;-47
2021/11/19 03:18:24;;;;;;;63.80;33.53;;;10.10;99.90;;;;;;5110324;28;20188;-48
2021/11/19 03:20:54;;;;;;;62.40;32.05;;;10.20;99.90;;;;;;5111990;28;20085;-47
2021/11/19 03:23:20;;;;;;;63.47;34.15;;;10.20;99.90;;;;;;5111746;28;20119;-47
2021/11/19 03:25:47;;;;;;;57.95;31.63;;;10.20;99.90;;;;;;5111656;28;20027;-46
2021/11/19 03:28:21;;;;;;;58.67;31.60;;;10.10;99.90;;;;;;5102353;27;20024;-49
2021/11/19 03:30:49;;;;;;;62.67;32.40;;;10.20;99.90;;;;;;5095812;28;20031;-47
2021/11/19 03:33:18;;;;;;;60.95;32.95;;;10.20;99.90;;;;;;5091075;28;20074;-47
2021/11/19 03:35:45;;;;;;;56.17;33.38;;;10.20;99.90;;;;;;5090769;28;20485;-47
2021/11/19 03:38:11;;;;;;;60.83;31.10;;;10.20;99.90;;;;;;5090986;28;20108;-49
2021/11/19 03:40:40;;;;;;;64.50;35.00;;;10.20;99.90;;;;;;5090237;28;20123;-47
2021/11/19 03:43:13;;;;;;;60.38;33.40;;;10.20;99.90;;;;;;5090611;28;20024;-47
2021/11/19 03:45:43;;;;;;;56.97;31.42;;;10.20;99.90;;;;;;5090540;28;20387;-47
2021/11/19 03:48:09;;;;;;;;;;;10.20;99.90;;;;;;5091789;28;20059;-46
2021/11/19 03:50:44;;;;;;;63.38;32.17;;;10.30;99.90;;;;;;5089772;28;20011;-49
2021/11/19 03:53:12;;;;;;;61.80;32.75;;;10.20;99.90;;;;;;5090876;28;20106;-48
2021/11/19 03:55:43;;;;;;;63.05;33.58;;;10.20;99.90;;;;;;5090457;28;20028;-46
2021/11/19 03:58:09;;;;;;;62.85;33.63;;;10.20;99.90;;;;;;5091330;28;20118;-47
2021/11/19 04:00:40;;;;;;;57.30;31.50;;;10.20;99.90;;;;;;5103350;28;20016;-46
2021/11/19 04:03:08;;;;;;;61.75;32.25;;;10.20;99.90;;;;;;5097218;28;20107;-46
2021/11/19 04:05:34;;;;;;;58.03;31.10;;;10.20;99.90;;;;;;5087921;28;20130;-46
2021/11/19 04:07:59;;;;;;;61.13;31.63;;;10.20;99.90;;;;;;5090024;28;20085;-46
2021/11/19 04:10:26;;;;;;;60.95;31.05;;;10.20;99.90;;;;;;5089473;28;20027;-46
2021/11/19 04:12:51;;;;;;;54.22;29.92;;;10.20;99.90;;;;;;5087790;28;20492;-46
2021/11/19 04:15:22;;;;;;;62.75;31.33;;;10.20;99.90;;;;;;5087236;28;20048;-47
2021/11/19 04:17:48;;;;;;;52.80;31.40;;;10.20;99.90;;;;;;5088740;28;20032;-48
2021/11/19 04:20:15;;;;;;;55.80;31.13;;;10.20;99.90;;;;;;5089181;28;20030;-46
2021/11/19 04:22:42;;;;;;;56.85;30.50;;;10.30;99.90;;;;;;5089549;28;20081;-46
2021/11/19 04:25:11;;;;;;;54.30;31.63;;;10.20;99.90;;;;;;5089739;28;20012;-47
2021/11/19 04:27:37;;;;;;;53.40;29.02;;;10.20;99.90;;;;;;5090745;28;20065;-46
2021/11/19 04:30:05;;;;;;;53.83;28.95;;;10.20;99.90;;;;;;5091830;28;20012;-45
2021/11/19 04:32:31;;;;;;;50.15;28.60;;;10.20;99.90;;;;;;5089208;28;20024;-46
2021/11/19 04:34:56;;;;;;;48.83;27.75;;;10.20;99.90;;;;;;5089790;28;20035;-46
2021/11/19 04:37:23;;;;;;;48.70;28.67;;;10.20;99.90;;;;;;5087809;28;20044;-46
2021/11/19 04:39:49;;;;;;;49.97;27.45;;;10.20;99.90;;;;;;5087533;28;20040;-46
2021/11/19 04:42:15;;;;;;;48.60;28.00;;;10.30;99.90;;;;;;5090732;28;20036;-46
2021/11/19 04:44:41;;;;;;;50.10;28.63;;;10.30;99.90;;;;;;5088332;28;20073;-47
2021/11/19 04:47:07;;;;;;;48.65;27.15;;;10.30;99.90;;;;;;5088336;28;20028;-47
2021/11/19 04:49:34;;;;;;;54.63;29.98;;;10.30;99.90;;;;;;5087666;28;20035;-48
2021/11/19 04:52:02;;;;;;;50.90;28.58;;;10.20;99.90;;;;;;5088226;28;20015;-47
2021/11/19 04:54:27;;;;;;;55.17;28.55;;;10.20;99.90;;;;;;5089078;28;20032;-47
2021/11/19 04:56:53;;;;;;;52.42;28.40;;;10.20;99.90;;;;;;5088200;28;20505;-47
2021/11/19 04:59:21;;;;;;;51.08;27.80;;;10.20;99.90;;;;;;5090566;28;20046;-48
2021/11/19 05:01:51;;;;;;;52.75;28.75;;;10.20;99.90;;;;;;5088735;28;20032;-47
2021/11/19 05:04:17;;;;;;;55.90;28.88;;;10.20;99.90;;;;;;5088147;28;20055;-47
2021/11/19 05:06:43;;;;;;;48.30;27.23;;;10.20;99.90;;;;;;5088269;28;20032;-50
2021/11/19 05:09:10;;;;;;;52.78;27.95;;;10.20;99.90;;;;;;5088734;28;20013;-49
2021/11/19 05:11:44;;;;;;;58.60;29.48;;;10.10;99.90;;;;;;5087437;28;20101;-49
2021/11/19 05:14:10;;;;;;;53.13;28.73;;;10.10;99.90;;;;;;5088395;28;20024;-47
2021/11/19 05:16:36;;;;;;;54.58;29.65;;;10.10;99.90;;;;;;5089180;28;20039;-47
2021/11/19 05:19:02;;;;;;;51.80;27.10;;;10.20;99.90;;;;;;5088061;28;20406;-47
2021/11/19 05:21:29;;;;;;;50.55;28.70;;;10.20;99.90;;;;;;5087675;28;20035;-47
2021/11/19 05:23:55;;;;;;;53.50;28.63;;;10.20;99.90;;;;;;5088782;28;20028;-47
2021/11/19 05:26:21;;;;;;;49.25;28.08;;;10.20;99.90;;;;;;5089099;28;20559;-49
2021/11/19 05:28:47;;;;;;;58.58;30.13;;;10.20;99.90;;;;;;5090371;28;20028;-48
2021/11/19 05:31:14;;;;;;;49.72;27.40;;;10.20;99.90;;;;;;5098707;28;20523;-48
2021/11/19 05:33:40;;;;;;;55.67;28.10;;;10.30;99.90;;;;;;5099577;28;20024;-48
2021/11/19 05:36:08;;;;;;;50.85;28.08;;;10.20;99.90;;;;;;5101366;28;20016;-48
2021/11/19 05:38:37;;;;;;;52.85;29.38;;;10.20;99.90;;;;;;5101779;28;20031;-48
2021/11/19 05:41:05;;;;;;;49.88;27.73;;;10.20;99.90;;;;;;5107164;28;20023;-48
2021/11/19 05:43:31;;;;;;;50.03;26.65;;;10.20;99.90;;;;;;5088189;28;20493;-47
2021/11/19 05:45:57;;;;;;;50.38;29.05;;;10.20;99.90;;;;;;5097533;28;20020;-48
2021/11/19 05:48:23;;;;;;;51.35;28.40;;;10.20;99.90;;;;;;5095098;28;20047;-48
2021/11/19 05:50:48;;;;;;;53.42;30.27;;;10.20;99.90;;;;;;5104790;28;20027;-48
2021/11/19 05:53:15;;;;;;;52.13;28.60;;;10.30;99.90;;;;;;5090738;28;20486;-47
2021/11/19 05:55:45;;;;;;;55.53;30.48;;;10.30;99.90;;;;;;5101524;28;20053;-47
2021/11/19 05:58:11;;;;;;;53.65;29.45;;;10.30;99.90;;;;;;5087983;28;20032;-48
2021/11/19 06:00:48;;;;;;;55.72;29.00;;;10.30;99.90;;;;;;5102382;28;20028;-47
2021/11/19 06:03:14;;;;;;;56.05;28.70;;;10.30;99.90;;;;;;5095167;28;20045;-47
2021/11/19 06:05:39;;;;;;;53.58;29.02;;;10.40;99.90;;;;;;5066953;28;20103;-47
2021/11/19 06:08:06;;;;;;;57.88;31.40;;;10.40;99.90;;;;;;5066223;28;20032;-47
2021/11/19 06:10:36;;;;;;;52.90;29.85;;;10.40;99.90;;;;;;5065882;28;20052;-47
2021/11/19 06:13:12;;;;;;;53.15;29.27;;;10.40;99.90;;;;;;5066147;28;20389;-47
2021/11/19 06:15:45;;;;;;;53.60;29.70;;;10.50;99.90;;;;;;5066300;28;20029;-47
2021/11/19 06:18:22;;;;;;;54.75;29.02;;;10.50;99.90;;;;;;5079356;28;20114;-46
2021/11/19 06:20:52;;;;;;;58.08;30.13;;;10.50;99.90;;;;;;5088196;28;20465;-47
2021/11/19 06:23:22;;;;;;;56.60;29.42;;;10.50;99.90;;;;;;5086602;28;20093;-47
2021/11/19 06:25:48;;;;;;;52.63;29.48;;;10.50;99.90;;;;;;5087529;28;20486;-47
2021/11/19 06:28:24;;;;;;;56.10;31.77;;;10.50;99.90;;;;;;5086143;28;20028;-48
2021/11/19 06:30:50;;;;;;;53.63;28.75;;;10.60;99.90;;;;;;5092407;28;20028;-47
2021/11/19 06:33:15;;;;;;;47.42;27.80;;;10.60;99.90;;;;;;5088038;28;20482;-47
2021/11/19 06:35:41;;;;;;;52.65;28.60;;;10.60;99.90;;;;;;5089358;28;20118;-47
2021/11/19 06:38:07;;;;;;;50.08;28.90;;;10.70;99.90;;;;;;5103102;28;20032;-47
2021/11/19 06:40:36;;;;;;;58.17;30.20;;;10.70;99.90;;;;;;5095673;28;20046;-46
2021/11/19 06:43:03;;;;;;;51.03;28.70;;;10.80;99.90;;;;;;5108103;28;20090;-47
2021/11/19 06:45:29;;;;;;;47.05;27.90;;;10.80;99.90;;;;;;5108119;28;20024;-47
2021/11/19 06:47:55;;;;;;;55.83;30.00;;;10.80;99.90;;;;;;5094889;28;20167;-47
2021/11/19 06:50:24;;;;;;;51.95;29.15;;;10.80;99.90;;;;;;5098324;28;20102;-46
2021/11/19 06:52:50;;;;;;;52.15;28.85;;;10.80;99.90;;;;;;5106821;28;20076;-47
2021/11/19 06:55:16;;;;;;;48.85;27.45;;;10.80;99.90;;;;;;5097993;28;20031;-48
2021/11/19 06:57:42;;;;;;;48.97;28.33;;;10.80;99.90;;;;;;5106812;28;20020;-47
2021/11/19 07:00:15;;;;;;;55.10;29.00;;;10.80;99.90;;;;;;5086623;28;20039;-48
2021/11/19 07:02:40;;;;;;;51.53;27.48;;;10.90;99.90;;;;;;5087627;28;20085;-46
2021/11/19 07:05:06;;;;;;;55.60;30.25;;;10.90;99.90;;;;;;5086908;28;20032;-46
2021/11/19 07:07:32;;;;;;;53.42;28.17;;;10.90;99.90;;;;;;5082966;28;20378;-47
2021/11/19 07:09:57;;;;;;;56.25;30.48;;;10.90;99.90;;;;;;5091813;28;20028;-47
2021/11/19 07:12:23;;;;;;;52.97;29.38;;;10.90;99.90;;;;;;5102092;28;20019;-48
2021/11/19 07:14:49;;;;;;;51.97;28.13;;;10.90;99.90;;;;;;5102521;28;20016;-46
2021/11/19 07:17:15;;;;;;;48.67;29.02;;;10.90;99.90;;;;;;5096959;28;20307;-47
2021/11/19 07:19:42;;;;;;;48.92;28.80;;;11.00;99.90;;;;;;5094779;28;20031;-47
2021/11/19 07:22:08;;;;;;;42.78;26.73;;;11.00;99.90;;;;;;5101290;28;20051;-47
2021/11/19 07:24:36;;;;;;;49.58;28.35;;;11.00;99.90;;;;;;5089390;28;20083;-46
2021/11/19 07:27:01;;;;;;;53.17;29.20;;;11.00;99.90;;;;;;5087190;28;20054;-47
2021/11/19 07:29:27;;;;;;;57.55;29.58;;;11.10;99.90;;;;;;5094786;28;20044;-46
2021/11/19 07:31:53;;;;;;;47.10;28.33;;;11.00;99.90;;;;;;5103780;28;20435;-48
2021/11/19 07:34:19;;;;;;;48.38;27.13;;;11.10;99.90;;;;;;5107914;28;20036;-47
2021/11/19 07:36:44;;;;;;;49.50;27.65;;;11.00;99.90;;;;;;5107468;28;20035;-47
2021/11/19 07:39:11;;;;;;;51.97;29.48;;;11.10;99.90;;;;;;5103463;28;20637;-47
2021/11/19 07:41:38;;;;;;;48.38;27.02;;;11.00;99.90;;;;;;5103024;28;20042;-47
2021/11/19 07:44:04;;;;;;;48.88;28.83;;;11.00;99.90;;;;;;5105095;28;20521;-48
2021/11/19 07:46:31;;;;;;;44.63;26.63;;;11.00;99.90;;;;;;5103995;28;20066;-47
2021/11/19 07:48:58;;;;;;;45.60;28.50;;;11.00;99.90;;;;;;5111003;28;20027;-48
2021/11/19 07:51:28;;;;;;;47.58;27.60;;;11.10;99.90;;;;;;5111130;28;20405;-47
2021/11/19 07:53:54;;;;;;;47.38;28.42;;;11.10;99.90;;;;;;5111149;28;20106;-48
2021/11/19 07:56:29;;;;;;;56.03;29.00;;;11.10;99.90;;;;;;5111235;28;20036;-47
2021/11/19 07:58:55;;;;;;;46.17;26.85;;;11.10;99.90;;;;;;5101401;28;20024;-46
2021/11/19 08:01:21;;;;;;;40.50;25.15;;;11.10;99.90;;;;;;5105534;28;20061;-47
2021/11/19 08:03:47;;;;;;;43.55;25.95;;;11.20;99.90;;;;;;5083453;28;20092;-47
2021/11/19 08:06:13;;;;;;;43.90;26.75;;;11.20;99.90;;;;;;5099661;28;20545;-48
2021/11/19 08:08:39;;;;;;;49.17;26.42;;;11.20;99.90;;;;;;5107064;28;20118;-47
2021/11/19 08:11:08;;;;;;;44.95;25.77;;;11.30;99.90;;;;;;5099458;28;20238;-47
2021/11/19 08:13:35;;;;;;;43.78;24.58;;;11.30;99.90;;;;;;5074842;28;20039;-48
2021/11/19 08:16:01;;;;;;;47.92;26.77;;;11.40;99.90;;;;;;5090665;28;20016;-47
2021/11/19 08:18:29;;;;;;;43.05;25.48;;;11.30;99.90;;;;;;5091638;28;20125;-48
2021/11/19 08:20:57;;;;;;;44.25;25.63;;;11.30;99.90;;;;;;5100486;28;20050;-47
2021/11/19 08:23:33;;;;;;;43.33;25.92;;;11.40;99.90;;;;;;5093175;28;20019;-48
2021/11/19 08:26:05;;;;;;;44.50;25.85;;;11.40;99.90;;;;;;5105966;28;20027;-48
2021/11/19 08:28:32;;;;;;;42.90;25.00;;;11.40;99.90;;;;;;5098746;28;20028;-48
2021/11/19 08:30:59;;;;;;;41.80;25.27;;;11.50;99.90;;;;;;5102432;28;20047;-47
2021/11/19 08:33:25;;;;;;;46.80;24.38;;;11.50;99.90;;;;;;5088138;28;20019;-49
2021/11/19 08:35:51;;;;;;;39.38;23.40;;;11.50;99.90;;;;;;5088462;28;20024;-47
2021/11/19 08:38:20;;;;;;;43.13;25.13;;;11.60;99.90;;;;;;5086391;28;20119;-47
2021/11/19 08:40:46;;;;;;;46.50;25.30;;;11.60;99.90;;;;;;5090772;28;20074;-48
2021/11/19 08:43:15;;;;;;;42.22;23.65;;;11.60;99.90;;;;;;5085757;28;20019;-47
2021/11/19 08:45:42;;;;;;;42.13;24.90;;;11.60;99.90;;;;;;5087275;28;20517;-47
2021/11/19 08:48:08;;;;;;;42.17;23.70;;;11.60;99.90;;;;;;5084739;28;20024;-47
2021/11/19 08:50:38;;;;;;;44.70;25.60;;;11.60;99.90;;;;;;5087150;28;20016;-47
2021/11/19 08:53:04;;;;;;;42.45;23.73;;;11.70;99.90;;;;;;5088021;28;20024;-47
2021/11/19 08:55:30;;;;;;;38.90;22.98;;;11.70;99.90;;;;;;5088737;28;20023;-47
2021/11/19 08:57:57;;;;;;;38.97;23.15;;;11.80;99.90;;;;;;5089239;28;20020;-47
2021/11/19 09:00:28;;;;;;;36.88;22.38;;;11.70;99.90;;;;;;5086226;28;20607;-48
2021/11/19 09:02:59;;;;;;;41.63;22.80;;;11.70;99.90;;;;;;5088468;28;20050;-46
2021/11/19 09:05:26;;;;;;;40.40;22.67;;;11.80;99.90;;;;;;5086110;28;20107;-46
2021/11/19 09:07:51;;;;;;;37.78;21.65;;;11.80;99.90;;;;;;5088347;28;20016;-47
2021/11/19 09:10:18;;;;;;;34.55;21.60;;;11.80;99.90;;;;;;5087279;28;20466;-50
2021/11/19 09:12:45;;;;;;;36.00;21.27;;;11.80;99.90;;;;;;5088069;28;20478;-47
2021/11/19 09:15:14;;;;;;;31.63;21.00;;;11.80;99.90;;;;;;5074617;28;20025;-49
2021/11/19 09:18:12;;;;;;;28.42;19.55;;;11.90;99.90;;;;;;5088289;28;20119;-47
2021/11/19 09:20:53;;;;;;;34.33;19.92;;;11.90;99.90;;;;;;5086287;28;20024;-47
2021/11/19 09:23:26;;;;;;;32.08;18.92;;;11.90;99.90;;;;;;5088606;28;20115;-47
2021/11/19 09:25:55;;;;;;;27.42;17.92;;;11.80;99.90;;;;;;5088633;28;20281;-46
2021/11/19 09:28:23;;;;;;;25.85;17.15;;;11.90;99.90;;;;;;5088028;28;20020;-47
2021/11/19 09:30:52;;;;;;;27.10;17.92;;;11.80;99.90;;;;;;5096263;28;20553;-46
2021/11/19 09:33:19;;;;;;;27.38;17.10;;;11.80;99.90;;;;;;5108127;28;20020;-47
2021/11/19 09:35:46;;;;;;;26.23;17.63;;;11.80;99.90;;;;;;5108630;28;20035;-46
2021/11/19 09:38:14;;;;;;;24.83;16.85;;;11.70;99.90;;;;;;5108638;28;20422;-48
2021/11/19 09:40:46;;;;;;;30.75;18.00;;;11.70;99.90;;;;;;5109203;28;20132;-47
2021/11/19 09:43:31;;;;;;;28.58;17.40;;;11.60;99.90;;;;;;5109102;28;20047;-47
2021/11/19 09:46:10;;;;;;;28.17;17.25;;;11.60;99.90;;;;;;5096754;28;20055;-48
2021/11/19 09:48:58;;;;;;;22.73;15.40;;;11.60;99.90;;;;;;5091552;28;20505;-46
2021/11/19 09:51:57;;;;;;;25.55;15.45;;;11.60;99.90;;;;;;5087303;28;20113;-47
2021/11/19 09:54:41;;;;;;;24.65;15.27;;;11.60;99.90;;;;;;5087066;28;20290;-47
2021/11/19 09:57:42;;;;;;;24.73;14.63;;;11.60;99.90;;;;;;5087248;28;20028;-47
2021/11/19 10:00:31;;;;;;;21.85;14.57;;;11.60;99.90;;;;;;5093378;28;20527;-47
2021/11/19 10:02:56;;;;;;;21.25;14.38;;;11.60;99.90;;;;;;5104046;28;20032;-46
2021/11/19 10:05:40;;;;;;;19.67;13.88;;;11.70;99.90;;;;;;5102277;28;20343;-47
2021/11/19 10:08:43;;;;;;;23.33;15.20;;;11.70;99.90;;;;;;5081286;28;20662;-47
2021/11/19 10:11:40;;;;;;;24.52;16.83;;;11.60;99.90;;;;;;5082436;28;20489;-47
2021/11/19 10:14:31;;;;;;;24.23;15.75;;;11.60;99.90;;;;;;5085666;28;20012;-48
2021/11/19 10:17:29;;;;;;;22.55;14.10;;;11.60;99.90;;;;;;5065860;28;20510;-48
2021/11/19 10:20:06;;;;;;;25.35;16.20;;;11.60;99.90;;;;;;5066633;28;20243;-46
2021/11/19 10:22:57;;;;;;;23.83;15.20;;;11.70;99.90;;;;;;5067645;28;20466;-47
2021/11/19 10:25:40;;;;;;;24.23;15.57;;;11.70;99.90;;;;;;5075072;28;20044;-47
2021/11/19 10:28:14;;;;;;;23.80;16.33;;;11.70;99.90;;;;;;5086581;28;20028;-48
2021/11/19 10:30:48;;;;;;;22.02;15.77;;;11.70;99.90;;;;;;5085922;28;20525;-46
2021/11/19 10:33:18;;;;;;;26.90;16.90;;;11.70;99.90;;;;;;5087709;28;20118;-48
2021/11/19 10:35:59;;;;;;;24.70;15.50;;;11.70;99.90;;;;;;5085642;28;20053;-47
2021/11/19 10:39:02;;;;;;;26.67;15.82;;;11.70;99.90;;;;;;5085388;28;20052;-47
2021/11/19 10:41:49;;;;;;;22.20;16.38;;;11.70;99.90;;;;;;5087483;28;20549;-49
2021/11/19 10:44:48;;;;;;;23.42;16.00;;;11.80;99.90;;;;;;5086894;28;20083;-48
2021/11/19 10:47:33;;;;;;;25.10;15.93;;;11.90;99.90;;;;;;5086386;28;20528;-47
2021/11/19 10:51:00;;;;;;;23.73;16.23;;;11.90;99.90;;;;;;5087556;28;20024;-47
2021/11/19 10:53:48;;;;;;;25.48;16.63;;;12.00;99.90;;;;;;5087926;28;20016;-47
2021/11/19 10:56:31;;;;;;;28.08;16.80;;;12.00;99.90;;;;;;5087861;28;20334;-48
2021/11/19 10:59:24;;;;;;;29.77;17.13;;;12.10;99.90;;;;;;5080331;28;20037;-47
2021/11/19 11:01:59;;;;;;;26.40;17.75;;;12.20;99.90;;;;;;5099342;28;20454;-48
2021/11/19 11:04:53;;;;;;;27.52;17.52;;;12.20;99.90;;;;;;5108104;28;20028;-49
2021/11/19 11:07:24;;;;;;;23.40;16.23;;;12.20;99.90;;;;;;5107770;28;20055;-47
2021/11/19 11:09:59;;;;;;;25.35;17.27;;;12.20;99.90;;;;;;5107167;28;20031;-47
2021/11/19 11:12:27;;;;;;;25.95;17.08;;;12.10;99.90;;;;;;5108424;28;20589;-47
2021/11/19 11:15:12;;;;;;;27.25;18.55;;;12.20;99.90;;;;;;5107854;28;20062;-48
2021/11/19 11:17:53;;;;;;;29.00;18.95;;;12.20;99.90;;;;;;5089871;28;20016;-47
2021/11/19 11:20:29;;;;;;;26.65;17.73;;;12.20;99.90;;;;;;5088774;28;20032;-48
2021/11/19 11:23:12;;;;;;;27.75;18.05;;;12.20;99.90;;;;;;5089183;28;20111;-47
2021/11/19 11:25:41;;;;;;;26.33;17.83;;;12.20;99.90;;;;;;5087027;28;20105;-47
2021/11/19 11:28:17;;;;;;;25.75;17.05;;;12.30;99.90;;;;;;5086849;28;20058;-46
2021/11/19 11:30:52;;;;;;;25.23;16.90;;;12.40;99.90;;;;;;5091435;28;20497;-48
2021/11/19 11:33:47;;;;;;;28.77;17.25;;;12.50;99.90;;;;;;5093482;28;20420;-48
2021/11/19 11:36:21;;;;;;;30.13;17.65;;;12.50;99.90;;;;;;5089623;28;20289;-47
2021/11/19 11:38:52;;;;;;;23.75;16.63;;;12.50;99.90;;;;;;5088378;28;20020;-48
2021/11/19 11:41:22;;;;;;;;;;;12.60;99.90;;;;;;5090747;28;20031;-50
2021/11/19 11:44:05;;;;;;;22.75;15.82;;;12.60;99.90;;;;;;5089646;28;19915;-47
2021/11/19 11:46:58;;;;;;;27.08;17.50;;;12.80;99.90;;;;;;5088584;28;20028;-49
2021/11/19 11:49:39;;;;;;;23.50;15.90;;;12.80;99.90;;;;;;5076721;28;20398;-47
2021/11/19 11:52:23;;;;;;;23.63;16.88;;;12.80;99.90;;;;;;5086740;28;20466;-47
2021/11/19 11:55:34;;;;;;;28.80;17.23;;;12.90;99.90;;;;;;5089120;28;20051;-48
2021/11/19 11:58:06;;;;;;;24.42;16.10;;;12.90;99.90;;;;;;5064314;28;20048;-48
2021/11/19 12:00:47;;;;;;;25.15;16.92;;;12.90;99.90;;;;;;5101534;28;20034;-46
2021/11/19 12:03:54;;;;;;;25.83;16.48;;;13.00;99.90;;;;;;5092898;28;20489;-47
2021/11/19 12:06:32;;;;;;;25.80;16.20;;;13.00;99.90;;;;;;5088468;28;20055;-48
2021/11/19 12:09:14;;;;;;;23.75;15.18;;;13.00;99.90;;;;;;5090953;28;20024;-48
2021/11/19 12:12:01;;;;;;;23.65;15.27;;;13.00;99.90;;;;;;5090757;28;20067;-47
2021/11/19 12:14:57;;;;;;;28.35;16.08;;;13.00;99.90;;;;;;5091265;28;20032;-47
2021/11/19 12:17:32;;;;;;;20.67;14.55;;;12.90;99.90;;;;;;5090484;28;20132;-48
2021/11/19 12:20:24;;;;;;;27.98;15.20;;;12.90;99.90;;;;;;5089828;28;20024;-48
2021/11/19 12:23:05;;;;;;;21.95;15.77;;;12.90;99.90;;;;;;5071199;28;20533;-50
2021/11/19 12:26:04;;;;;;;21.27;15.75;;;12.80;99.90;;;;;;5072972;28;20058;-47
2021/11/19 12:28:36;;;;;;;27.13;14.60;;;12.80;99.90;;;;;;5091662;28;20024;-48
2021/11/19 12:31:10;;;;;;;23.17;15.00;;;12.80;99.90;;;;;;5091989;28;20049;-47
2021/11/19 12:33:39;;;;;;;24.52;15.73;;;12.80;99.90;;;;;;5091418;28;20107;-49
2021/11/19 12:36:21;;;;;;;24.38;15.95;;;12.80;99.90;;;;;;5091290;28;20024;-48
2021/11/19 12:38:50;;;;;;;25.08;14.95;;;12.90;99.90;;;;;;5090154;28;20030;-48
2021/11/19 12:41:43;;;;;;;19.60;14.18;;;12.90;99.90;;;;;;5094947;28;20035;-42
2021/11/19 12:44:25;;;;;;;23.13;14.57;;;12.90;99.90;;;;;;5109132;28;20039;-42
2021/11/19 12:46:57;;;;;;;27.02;14.65;;;12.90;99.90;;;;;;5111073;28;20091;-43
2021/11/19 12:49:25;;;;;;;26.60;14.57;;;12.90;99.90;;;;;;5110741;27;20358;-42
2021/11/19 12:52:05;;;;;;;22.73;13.10;;;12.90;99.90;;;;;;5110826;28;20109;-45